sensor_id;sensor_type;location;lat;lon;timestamp;P1;durP1;ratioP1;P2;durP2;ratioP2
25449;SDS011;13371;52.080;5.624;2023-04-25T00:02:12;9.27;;;2.08;;
25449;SDS011;13371;52.080;5.624;2023-04-25T00:04:38;5.13;;;1.90;;
25449;SDS011;13371;52.080;5.624;2023-04-25T00:07:03;4.28;;;1.90;;
25449;SDS011;13371;52.080;5.624;2023-04-25T00:09:29;8.20;;;2.70;;
25449;SDS011;13371;52.080;5.624;2023-04-25T00:11:56;5.68;;;2.28;;
25449;SDS011;13371;52.080;5.624;2023-04-25T00:14:22;7.70;;;2.28;;
25449;SDS011;13371;52.080;5.624;2023-04-25T00:16:48;13.30;;;2.67;;
25449;SDS011;13371;52.080;5.624;2023-04-25T00:19:13;6.13;;;1.90;;
25449;SDS011;13371;52.080;5.624;2023-04-25T00:21:39;7.35;;;2.10;;
25449;SDS011;13371;52.080;5.624;2023-04-25T00:24:06;5.30;;;1.95;;
25449;SDS011;13371;52.080;5.624;2023-04-25T00:26:33;12.27;;;2.13;;
25449;SDS011;13371;52.080;5.624;2023-04-25T00:28:59;6.25;;;2.28;;
25449;SDS011;13371;52.080;5.624;2023-04-25T00:31:25;11.32;;;2.30;;
25449;SDS011;13371;52.080;5.624;2023-04-25T00:33:51;9.80;;;2.30;;
25449;SDS011;13371;52.080;5.624;2023-04-25T00:36:16;4.88;;;1.63;;
25449;SDS011;13371;52.080;5.624;2023-04-25T00:38:43;5.45;;;2.00;;
25449;SDS011;13371;52.080;5.624;2023-04-25T00:41:08;9.18;;;2.25;;
25449;SDS011;13371;52.080;5.624;2023-04-25T00:43:34;5.78;;;1.80;;
25449;SDS011;13371;52.080;5.624;2023-04-25T00:46:02;6.03;;;2.22;;
25449;SDS011;13371;52.080;5.624;2023-04-25T00:48:27;8.88;;;2.10;;
25449;SDS011;13371;52.080;5.624;2023-04-25T00:50:54;12.27;;;2.53;;
25449;SDS011;13371;52.080;5.624;2023-04-25T00:53:22;6.03;;;1.80;;
25449;SDS011;13371;52.080;5.624;2023-04-25T00:55:49;7.78;;;2.08;;
25449;SDS011;13371;52.080;5.624;2023-04-25T00:58:18;3.95;;;1.67;;
25449;SDS011;13371;52.080;5.624;2023-04-25T01:00:45;5.03;;;1.80;;
25449;SDS011;13371;52.080;5.624;2023-04-25T01:03:13;6.05;;;2.30;;
25449;SDS011;13371;52.080;5.624;2023-04-25T01:05:41;5.53;;;2.00;;
25449;SDS011;13371;52.080;5.624;2023-04-25T01:08:07;5.15;;;2.03;;
25449;SDS011;13371;52.080;5.624;2023-04-25T01:10:33;8.07;;;1.80;;
25449;SDS011;13371;52.080;5.624;2023-04-25T01:12:59;8.93;;;2.50;;
25449;SDS011;13371;52.080;5.624;2023-04-25T01:15:24;10.48;;;2.83;;
25449;SDS011;13371;52.080;5.624;2023-04-25T01:17:50;6.43;;;2.67;;
25449;SDS011;13371;52.080;5.624;2023-04-25T01:20:16;7.78;;;2.10;;
25449;SDS011;13371;52.080;5.624;2023-04-25T01:22:42;8.65;;;2.20;;
25449;SDS011;13371;52.080;5.624;2023-04-25T01:25:08;14.10;;;3.25;;
25449;SDS011;13371;52.080;5.624;2023-04-25T01:27:36;11.35;;;2.70;;
25449;SDS011;13371;52.080;5.624;2023-04-25T01:30:02;8.07;;;2.30;;
25449;SDS011;13371;52.080;5.624;2023-04-25T01:32:28;10.35;;;2.60;;
25449;SDS011;13371;52.080;5.624;2023-04-25T01:34:56;4.18;;;1.63;;
25449;SDS011;13371;52.080;5.624;2023-04-25T01:37:22;5.03;;;2.40;;
25449;SDS011;13371;52.080;5.624;2023-04-25T01:39:47;8.77;;;2.17;;
25449;SDS011;13371;52.080;5.624;2023-04-25T01:42:15;4.88;;;1.65;;
25449;SDS011;13371;52.080;5.624;2023-04-25T01:44:40;7.53;;;2.10;;
25449;SDS011;13371;52.080;5.624;2023-04-25T01:47:06;5.75;;;2.17;;
25449;SDS011;13371;52.080;5.624;2023-04-25T01:49:32;8.82;;;2.60;;
25449;SDS011;13371;52.080;5.624;2023-04-25T01:51:57;5.93;;;1.80;;
25449;SDS011;13371;52.080;5.624;2023-04-25T01:54:23;12.23;;;2.58;;
25449;SDS011;13371;52.080;5.624;2023-04-25T01:56:52;5.78;;;2.05;;
25449;SDS011;13371;52.080;5.624;2023-04-25T01:59:18;4.88;;;2.38;;
25449;SDS011;13371;52.080;5.624;2023-04-25T02:01:45;7.22;;;3.22;;
25449;SDS011;13371;52.080;5.624;2023-04-25T02:04:10;5.40;;;1.98;;
25449;SDS011;13371;52.080;5.624;2023-04-25T02:06:36;11.40;;;2.75;;
25449;SDS011;13371;52.080;5.624;2023-04-25T02:09:01;7.75;;;1.98;;
25449;SDS011;13371;52.080;5.624;2023-04-25T02:11:27;12.75;;;2.80;;
25449;SDS011;13371;52.080;5.624;2023-04-25T02:13:52;7.53;;;2.35;;
25449;SDS011;13371;52.080;5.624;2023-04-25T02:16:18;6.97;;;2.58;;
25449;SDS011;13371;52.080;5.624;2023-04-25T02:18:44;6.07;;;3.00;;
25449;SDS011;13371;52.080;5.624;2023-04-25T02:21:09;9.23;;;2.35;;
25449;SDS011;13371;52.080;5.624;2023-04-25T02:23:36;8.27;;;2.92;;
25449;SDS011;13371;52.080;5.624;2023-04-25T02:26:02;9.07;;;2.97;;
25449;SDS011;13371;52.080;5.624;2023-04-25T02:28:27;9.98;;;3.03;;
25449;SDS011;13371;52.080;5.624;2023-04-25T02:30:53;6.18;;;2.20;;
25449;SDS011;13371;52.080;5.624;2023-04-25T02:33:18;4.47;;;1.77;;
25449;SDS011;13371;52.080;5.624;2023-04-25T02:35:45;9.43;;;2.20;;
25449;SDS011;13371;52.080;5.624;2023-04-25T02:38:11;5.93;;;2.13;;
25449;SDS011;13371;52.080;5.624;2023-04-25T02:40:37;8.85;;;2.50;;
25449;SDS011;13371;52.080;5.624;2023-04-25T02:43:02;7.55;;;2.25;;
25449;SDS011;13371;52.080;5.624;2023-04-25T02:45:28;7.80;;;1.98;;
25449;SDS011;13371;52.080;5.624;2023-04-25T02:47:53;4.72;;;1.77;;
25449;SDS011;13371;52.080;5.624;2023-04-25T02:50:19;7.90;;;3.20;;
25449;SDS011;13371;52.080;5.624;2023-04-25T02:52:45;8.52;;;2.30;;
25449;SDS011;13371;52.080;5.624;2023-04-25T02:55:11;6.63;;;1.77;;
25449;SDS011;13371;52.080;5.624;2023-04-25T02:57:37;4.45;;;1.98;;
25449;SDS011;13371;52.080;5.624;2023-04-25T03:00:03;12.15;;;3.30;;
25449;SDS011;13371;52.080;5.624;2023-04-25T03:02:30;7.43;;;2.40;;
25449;SDS011;13371;52.080;5.624;2023-04-25T03:04:55;6.85;;;2.97;;
25449;SDS011;13371;52.080;5.624;2023-04-25T03:07:21;8.60;;;2.67;;
25449;SDS011;13371;52.080;5.624;2023-04-25T03:09:46;9.07;;;2.55;;
25449;SDS011;13371;52.080;5.624;2023-04-25T03:12:12;6.90;;;2.95;;
25449;SDS011;13371;52.080;5.624;2023-04-25T03:14:38;4.72;;;2.00;;
25449;SDS011;13371;52.080;5.624;2023-04-25T03:17:03;8.25;;;2.38;;
25449;SDS011;13371;52.080;5.624;2023-04-25T03:19:29;8.65;;;2.47;;
25449;SDS011;13371;52.080;5.624;2023-04-25T03:21:55;3.95;;;1.67;;
25449;SDS011;13371;52.080;5.624;2023-04-25T03:24:21;4.90;;;1.88;;
25449;SDS011;13371;52.080;5.624;2023-04-25T03:26:47;6.05;;;2.03;;
25449;SDS011;13371;52.080;5.624;2023-04-25T03:29:12;12.52;;;2.53;;
25449;SDS011;13371;52.080;5.624;2023-04-25T03:31:38;6.07;;;2.15;;
25449;SDS011;13371;52.080;5.624;2023-04-25T03:34:03;9.63;;;2.30;;
25449;SDS011;13371;52.080;5.624;2023-04-25T03:36:29;3.85;;;1.92;;
25449;SDS011;13371;52.080;5.624;2023-04-25T03:38:55;8.35;;;1.90;;
25449;SDS011;13371;52.080;5.624;2023-04-25T03:41:20;5.22;;;1.65;;
25449;SDS011;13371;52.080;5.624;2023-04-25T03:43:46;3.30;;;1.85;;
25449;SDS011;13371;52.080;5.624;2023-04-25T03:46:11;3.35;;;1.65;;
25449;SDS011;13371;52.080;5.624;2023-04-25T03:48:37;6.70;;;2.17;;
25449;SDS011;13371;52.080;5.624;2023-04-25T03:51:03;6.28;;;2.55;;
25449;SDS011;13371;52.080;5.624;2023-04-25T03:53:28;9.43;;;2.05;;
25449;SDS011;13371;52.080;5.624;2023-04-25T03:55:54;12.10;;;2.75;;
25449;SDS011;13371;52.080;5.624;2023-04-25T03:58:20;9.25;;;2.05;;
25449;SDS011;13371;52.080;5.624;2023-04-25T04:00:45;10.77;;;2.60;;
25449;SDS011;13371;52.080;5.624;2023-04-25T04:03:11;6.25;;;2.65;;
25449;SDS011;13371;52.080;5.624;2023-04-25T04:05:37;7.35;;;2.58;;
25449;SDS011;13371;52.080;5.624;2023-04-25T04:08:05;13.00;;;2.55;;
25449;SDS011;13371;52.080;5.624;2023-04-25T04:10:31;6.90;;;2.30;;
25449;SDS011;13371;52.080;5.624;2023-04-25T04:12:56;14.57;;;2.72;;
25449;SDS011;13371;52.080;5.624;2023-04-25T04:15:22;11.05;;;2.53;;
25449;SDS011;13371;52.080;5.624;2023-04-25T04:17:48;6.10;;;2.42;;
25449;SDS011;13371;52.080;5.624;2023-04-25T04:20:13;9.27;;;2.47;;
25449;SDS011;13371;52.080;5.624;2023-04-25T04:22:39;11.60;;;3.15;;
25449;SDS011;13371;52.080;5.624;2023-04-25T04:25:05;4.47;;;2.33;;
25449;SDS011;13371;52.080;5.624;2023-04-25T04:27:31;10.85;;;3.45;;
25449;SDS011;13371;52.080;5.624;2023-04-25T04:29:57;10.68;;;2.72;;
25449;SDS011;13371;52.080;5.624;2023-04-25T04:32:22;14.90;;;2.28;;
25449;SDS011;13371;52.080;5.624;2023-04-25T04:34:48;3.72;;;1.73;;
25449;SDS011;13371;52.080;5.624;2023-04-25T04:37:14;7.13;;;2.20;;
25449;SDS011;13371;52.080;5.624;2023-04-25T04:39:40;10.48;;;2.40;;
25449;SDS011;13371;52.080;5.624;2023-04-25T04:42:05;6.75;;;2.05;;
25449;SDS011;13371;52.080;5.624;2023-04-25T04:44:31;7.47;;;2.35;;
25449;SDS011;13371;52.080;5.624;2023-04-25T04:46:57;7.68;;;2.20;;
25449;SDS011;13371;52.080;5.624;2023-04-25T04:49:23;4.05;;;1.88;;
25449;SDS011;13371;52.080;5.624;2023-04-25T04:51:49;5.05;;;2.10;;
25449;SDS011;13371;52.080;5.624;2023-04-25T04:54:15;10.73;;;2.33;;
25449;SDS011;13371;52.080;5.624;2023-04-25T04:56:40;5.35;;;1.67;;
25449;SDS011;13371;52.080;5.624;2023-04-25T04:59:06;10.48;;;2.20;;
25449;SDS011;13371;52.080;5.624;2023-04-25T05:01:32;10.23;;;2.42;;
25449;SDS011;13371;52.080;5.624;2023-04-25T05:04:00;8.63;;;2.17;;
25449;SDS011;13371;52.080;5.624;2023-04-25T05:06:28;6.90;;;1.90;;
25449;SDS011;13371;52.080;5.624;2023-04-25T05:08:56;5.80;;;2.38;;
25449;SDS011;13371;52.080;5.624;2023-04-25T05:11:22;7.03;;;2.38;;
25449;SDS011;13371;52.080;5.624;2023-04-25T05:13:50;12.27;;;3.42;;
25449;SDS011;13371;52.080;5.624;2023-04-25T05:16:17;9.43;;;2.40;;
25449;SDS011;13371;52.080;5.624;2023-04-25T05:18:42;8.85;;;2.33;;
25449;SDS011;13371;52.080;5.624;2023-04-25T05:21:08;8.38;;;1.73;;
25449;SDS011;13371;52.080;5.624;2023-04-25T05:23:33;6.65;;;1.77;;
25449;SDS011;13371;52.080;5.624;2023-04-25T05:25:59;8.93;;;1.75;;
25449;SDS011;13371;52.080;5.624;2023-04-25T05:28:25;12.43;;;2.10;;
25449;SDS011;13371;52.080;5.624;2023-04-25T05:30:51;5.93;;;2.30;;
25449;SDS011;13371;52.080;5.624;2023-04-25T05:33:17;6.10;;;1.80;;
25449;SDS011;13371;52.080;5.624;2023-04-25T05:35:42;6.50;;;1.75;;
25449;SDS011;13371;52.080;5.624;2023-04-25T05:38:08;9.90;;;1.65;;
25449;SDS011;13371;52.080;5.624;2023-04-25T05:40:34;5.20;;;2.00;;
25449;SDS011;13371;52.080;5.624;2023-04-25T05:42:59;2.95;;;1.50;;
25449;SDS011;13371;52.080;5.624;2023-04-25T05:45:25;2.55;;;1.42;;
25449;SDS011;13371;52.080;5.624;2023-04-25T05:47:51;6.53;;;1.90;;
25449;SDS011;13371;52.080;5.624;2023-04-25T05:50:16;10.63;;;2.72;;
25449;SDS011;13371;52.080;5.624;2023-04-25T05:52:42;3.42;;;1.60;;
25449;SDS011;13371;52.080;5.624;2023-04-25T05:55:08;5.70;;;1.65;;
25449;SDS011;13371;52.080;5.624;2023-04-25T05:57:33;5.28;;;1.65;;
25449;SDS011;13371;52.080;5.624;2023-04-25T05:59:59;5.15;;;1.77;;
25449;SDS011;13371;52.080;5.624;2023-04-25T06:02:25;6.13;;;1.90;;
25449;SDS011;13371;52.080;5.624;2023-04-25T06:04:51;10.07;;;2.63;;
25449;SDS011;13371;52.080;5.624;2023-04-25T06:07:17;9.65;;;3.45;;
25449;SDS011;13371;52.080;5.624;2023-04-25T06:09:43;8.98;;;2.33;;
25449;SDS011;13371;52.080;5.624;2023-04-25T06:12:09;3.97;;;1.88;;
25449;SDS011;13371;52.080;5.624;2023-04-25T06:14:35;3.65;;;1.80;;
25449;SDS011;13371;52.080;5.624;2023-04-25T06:17:03;4.97;;;2.13;;
25449;SDS011;13371;52.080;5.624;2023-04-25T06:19:33;6.43;;;1.80;;
25449;SDS011;13371;52.080;5.624;2023-04-25T06:22:00;9.52;;;2.22;;
25449;SDS011;13371;52.080;5.624;2023-04-25T06:24:26;2.72;;;1.33;;
25449;SDS011;13371;52.080;5.624;2023-04-25T06:26:51;6.78;;;2.38;;
25449;SDS011;13371;52.080;5.624;2023-04-25T06:29:17;5.40;;;1.73;;
25449;SDS011;13371;52.080;5.624;2023-04-25T06:31:43;15.15;;;2.40;;
25449;SDS011;13371;52.080;5.624;2023-04-25T06:34:09;4.80;;;1.88;;
25449;SDS011;13371;52.080;5.624;2023-04-25T06:36:34;12.85;;;2.05;;
25449;SDS011;13371;52.080;5.624;2023-04-25T06:39:00;7.20;;;1.85;;
25449;SDS011;13371;52.080;5.624;2023-04-25T06:41:25;7.40;;;1.85;;
25449;SDS011;13371;52.080;5.624;2023-04-25T06:43:53;5.18;;;1.42;;
25449;SDS011;13371;52.080;5.624;2023-04-25T06:46:19;4.28;;;1.83;;
25449;SDS011;13371;52.080;5.624;2023-04-25T06:48:45;8.25;;;1.77;;
25449;SDS011;13371;52.080;5.624;2023-04-25T06:51:13;7.28;;;1.70;;
25449;SDS011;13371;52.080;5.624;2023-04-25T06:53:39;6.47;;;2.60;;
25449;SDS011;13371;52.080;5.624;2023-04-25T06:56:05;9.23;;;1.98;;
25449;SDS011;13371;52.080;5.624;2023-04-25T06:58:35;4.97;;;1.73;;
25449;SDS011;13371;52.080;5.624;2023-04-25T07:01:00;8.85;;;1.98;;
25449;SDS011;13371;52.080;5.624;2023-04-25T07:03:26;14.02;;;2.45;;
25449;SDS011;13371;52.080;5.624;2023-04-25T07:05:52;6.65;;;1.63;;
25449;SDS011;13371;52.080;5.624;2023-04-25T07:08:18;6.00;;;1.27;;
25449;SDS011;13371;52.080;5.624;2023-04-25T07:10:44;6.15;;;1.63;;
25449;SDS011;13371;52.080;5.624;2023-04-25T07:13:13;9.23;;;1.70;;
25449;SDS011;13371;52.080;5.624;2023-04-25T07:15:38;7.70;;;2.10;;
25449;SDS011;13371;52.080;5.624;2023-04-25T07:18:04;9.90;;;1.80;;
25449;SDS011;13371;52.080;5.624;2023-04-25T07:20:32;5.20;;;1.83;;
25449;SDS011;13371;52.080;5.624;2023-04-25T07:23:01;5.68;;;1.65;;
25449;SDS011;13371;52.080;5.624;2023-04-25T07:25:27;9.88;;;1.50;;
25449;SDS011;13371;52.080;5.624;2023-04-25T07:27:52;6.75;;;1.10;;
25449;SDS011;13371;52.080;5.624;2023-04-25T07:30:18;6.90;;;1.30;;
25449;SDS011;13371;52.080;5.624;2023-04-25T07:32:44;5.50;;;1.45;;
25449;SDS011;13371;52.080;5.624;2023-04-25T07:35:26;4.78;;;1.55;;
25449;SDS011;13371;52.080;5.624;2023-04-25T07:37:57;5.78;;;1.42;;
25449;SDS011;13371;52.080;5.624;2023-04-25T07:40:27;5.57;;;1.95;;
25449;SDS011;13371;52.080;5.624;2023-04-25T07:42:53;12.23;;;1.73;;
25449;SDS011;13371;52.080;5.624;2023-04-25T07:45:21;5.47;;;1.25;;
25449;SDS011;13371;52.080;5.624;2023-04-25T07:47:54;9.25;;;1.58;;
25449;SDS011;13371;52.080;5.624;2023-04-25T07:50:23;6.15;;;1.80;;
25449;SDS011;13371;52.080;5.624;2023-04-25T07:53:06;6.57;;;1.38;;
25449;SDS011;13371;52.080;5.624;2023-04-25T07:56:05;4.28;;;1.00;;
25449;SDS011;13371;52.080;5.624;2023-04-25T07:58:42;2.53;;;0.90;;
25449;SDS011;13371;52.080;5.624;2023-04-25T08:01:16;4.18;;;1.05;;
25449;SDS011;13371;52.080;5.624;2023-04-25T08:03:44;4.10;;;0.90;;
25449;SDS011;13371;52.080;5.624;2023-04-25T08:06:10;1.75;;;0.73;;
25449;SDS011;13371;52.080;5.624;2023-04-25T08:08:36;5.93;;;1.33;;
25449;SDS011;13371;52.080;5.624;2023-04-25T08:11:01;3.63;;;0.75;;
25449;SDS011;13371;52.080;5.624;2023-04-25T08:13:27;3.30;;;0.80;;
25449;SDS011;13371;52.080;5.624;2023-04-25T08:15:52;5.05;;;0.98;;
25449;SDS011;13371;52.080;5.624;2023-04-25T08:18:18;5.50;;;0.95;;
25449;SDS011;13371;52.080;5.624;2023-04-25T08:20:43;6.22;;;1.02;;
25449;SDS011;13371;52.080;5.624;2023-04-25T08:23:10;8.38;;;2.00;;
25449;SDS011;13371;52.080;5.624;2023-04-25T08:25:35;3.05;;;0.60;;
25449;SDS011;13371;52.080;5.624;2023-04-25T08:28:01;5.25;;;1.08;;
25449;SDS011;13371;52.080;5.624;2023-04-25T08:30:28;2.97;;;0.85;;
25449;SDS011;13371;52.080;5.624;2023-04-25T08:32:54;2.53;;;0.93;;
25449;SDS011;13371;52.080;5.624;2023-04-25T08:35:19;6.60;;;1.20;;
25449;SDS011;13371;52.080;5.624;2023-04-25T08:37:45;4.47;;;0.95;;
25449;SDS011;13371;52.080;5.624;2023-04-25T08:40:12;6.78;;;0.75;;
25449;SDS011;13371;52.080;5.624;2023-04-25T08:42:40;2.53;;;0.77;;
25449;SDS011;13371;52.080;5.624;2023-04-25T08:45:08;3.60;;;1.30;;
25449;SDS011;13371;52.080;5.624;2023-04-25T08:47:35;5.63;;;0.75;;
25449;SDS011;13371;52.080;5.624;2023-04-25T08:50:03;5.57;;;1.40;;
25449;SDS011;13371;52.080;5.624;2023-04-25T08:52:32;1.95;;;0.43;;
25449;SDS011;13371;52.080;5.624;2023-04-25T08:55:13;1.55;;;0.65;;
25449;SDS011;13371;52.080;5.624;2023-04-25T08:57:40;4.20;;;0.95;;
25449;SDS011;13371;52.080;5.624;2023-04-25T09:00:08;7.68;;;1.45;;
25449;SDS011;13371;52.080;5.624;2023-04-25T09:02:38;3.08;;;1.00;;
25449;SDS011;13371;52.080;5.624;2023-04-25T09:05:04;4.20;;;0.82;;
25449;SDS011;13371;52.080;5.624;2023-04-25T09:07:31;3.53;;;0.90;;
25449;SDS011;13371;52.080;5.624;2023-04-25T09:09:57;8.93;;;1.05;;
25449;SDS011;13371;52.080;5.624;2023-04-25T09:12:24;4.13;;;0.63;;
25449;SDS011;13371;52.080;5.624;2023-04-25T09:15:10;1.50;;;0.70;;
25449;SDS011;13371;52.080;5.624;2023-04-25T09:17:37;3.28;;;0.75;;
25449;SDS011;13371;52.080;5.624;2023-04-25T09:20:07;3.33;;;0.50;;
25449;SDS011;13371;52.080;5.624;2023-04-25T09:22:34;1.05;;;0.52;;
25449;SDS011;13371;52.080;5.624;2023-04-25T09:25:08;9.25;;;0.80;;
25449;SDS011;13371;52.080;5.624;2023-04-25T09:27:35;7.05;;;1.75;;
25449;SDS011;13371;52.080;5.624;2023-04-25T09:30:02;4.50;;;0.77;;
25449;SDS011;13371;52.080;5.624;2023-04-25T09:32:28;2.05;;;0.60;;
25449;SDS011;13371;52.080;5.624;2023-04-25T09:34:54;1.05;;;0.60;;
25449;SDS011;13371;52.080;5.624;2023-04-25T09:37:25;12.05;;;1.42;;
25449;SDS011;13371;52.080;5.624;2023-04-25T09:39:56;3.33;;;0.90;;
25449;SDS011;13371;52.080;5.624;2023-04-25T09:42:27;4.22;;;0.60;;
25449;SDS011;13371;52.080;5.624;2023-04-25T09:44:55;3.08;;;0.77;;
25449;SDS011;13371;52.080;5.624;2023-04-25T09:47:22;2.53;;;0.90;;
25449;SDS011;13371;52.080;5.624;2023-04-25T09:49:49;3.08;;;0.60;;
25449;SDS011;13371;52.080;5.624;2023-04-25T09:52:20;2.92;;;0.50;;
25449;SDS011;13371;52.080;5.624;2023-04-25T09:54:48;3.65;;;0.77;;
25449;SDS011;13371;52.080;5.624;2023-04-25T09:57:18;2.78;;;0.68;;
25449;SDS011;13371;52.080;5.624;2023-04-25T09:59:46;4.63;;;0.73;;
25449;SDS011;13371;52.080;5.624;2023-04-25T10:02:14;1.63;;;0.60;;
25449;SDS011;13371;52.080;5.624;2023-04-25T10:04:42;8.35;;;0.90;;
25449;SDS011;13371;52.080;5.624;2023-04-25T10:07:12;2.45;;;0.40;;
25449;SDS011;13371;52.080;5.624;2023-04-25T10:09:39;2.60;;;0.68;;
25449;SDS011;13371;52.080;5.624;2023-04-25T10:12:06;1.75;;;0.75;;
25449;SDS011;13371;52.080;5.624;2023-04-25T10:14:32;0.90;;;0.60;;
25449;SDS011;13371;52.080;5.624;2023-04-25T10:16:59;4.15;;;0.80;;
25449;SDS011;13371;52.080;5.624;2023-04-25T10:19:26;3.42;;;0.77;;
25449;SDS011;13371;52.080;5.624;2023-04-25T10:24:45;3.75;;;0.88;;
25449;SDS011;13371;52.080;5.624;2023-04-25T10:27:11;6.32;;;0.93;;
25449;SDS011;13371;52.080;5.624;2023-04-25T10:29:38;2.90;;;0.75;;
25449;SDS011;13371;52.080;5.624;2023-04-25T10:32:03;4.38;;;0.68;;
25449;SDS011;13371;52.080;5.624;2023-04-25T10:34:42;3.67;;;0.95;;
25449;SDS011;13371;52.080;5.624;2023-04-25T10:37:12;2.88;;;0.73;;
25449;SDS011;13371;52.080;5.624;2023-04-25T10:39:41;1.95;;;0.70;;
25449;SDS011;13371;52.080;5.624;2023-04-25T10:42:07;4.68;;;0.70;;
25449;SDS011;13371;52.080;5.624;2023-04-25T10:44:34;2.15;;;0.52;;
25449;SDS011;13371;52.080;5.624;2023-04-25T10:47:02;4.20;;;0.60;;
25449;SDS011;13371;52.080;5.624;2023-04-25T10:57:30;3.75;;;0.55;;
25449;SDS011;13371;52.080;5.624;2023-04-25T11:00:07;4.15;;;0.85;;
25449;SDS011;13371;52.080;5.624;2023-04-25T11:02:37;2.20;;;0.60;;
25449;SDS011;13371;52.080;5.624;2023-04-25T11:05:10;3.70;;;0.60;;
25449;SDS011;13371;52.080;5.624;2023-04-25T11:07:45;3.80;;;1.02;;
25449;SDS011;13371;52.080;5.624;2023-04-25T11:11:05;1.48;;;0.68;;
25449;SDS011;13371;52.080;5.624;2023-04-25T11:17:03;0.90;;;0.40;;
25449;SDS011;13371;52.080;5.624;2023-04-25T11:19:33;2.47;;;0.63;;
25449;SDS011;13371;52.080;5.624;2023-04-25T11:22:07;3.15;;;0.60;;
25449;SDS011;13371;52.080;5.624;2023-04-25T11:24:54;3.60;;;0.75;;
25449;SDS011;13371;52.080;5.624;2023-04-25T11:30:38;1.97;;;0.60;;
25449;SDS011;13371;52.080;5.624;2023-04-25T11:33:22;2.13;;;0.70;;
25449;SDS011;13371;52.080;5.624;2023-04-25T11:43:37;2.00;;;0.55;;
25449;SDS011;13371;52.080;5.624;2023-04-25T11:50:07;3.15;;;0.70;;
25449;SDS011;13371;52.080;5.624;2023-04-25T11:52:57;5.03;;;0.90;;
25449;SDS011;13371;52.080;5.624;2023-04-25T11:59:12;1.77;;;0.70;;
25449;SDS011;13371;52.080;5.624;2023-04-25T12:02:34;3.17;;;1.10;;
25449;SDS011;13371;52.080;5.624;2023-04-25T12:15:44;1.45;;;0.77;;
25449;SDS011;13371;52.080;5.624;2023-04-25T12:22:18;6.97;;;1.50;;
25449;SDS011;13371;52.080;5.624;2023-04-25T12:25:10;4.10;;;0.73;;
25449;SDS011;13371;52.080;5.624;2023-04-25T12:31:05;3.80;;;0.80;;
25449;SDS011;13371;52.080;5.624;2023-04-25T12:33:32;3.25;;;0.73;;
25449;SDS011;13371;52.080;5.624;2023-04-25T12:36:27;4.43;;;0.85;;
25449;SDS011;13371;52.080;5.624;2023-04-25T12:39:24;5.88;;;1.25;;
25449;SDS011;13371;52.080;5.624;2023-04-25T12:42:05;2.63;;;0.98;;
25449;SDS011;13371;52.080;5.624;2023-04-25T12:44:44;3.88;;;1.50;;
25449;SDS011;13371;52.080;5.624;2023-04-25T12:47:21;2.40;;;0.93;;
25449;SDS011;13371;52.080;5.624;2023-04-25T12:53:02;3.08;;;0.70;;
25449;SDS011;13371;52.080;5.624;2023-04-25T13:12:39;3.75;;;1.33;;
25449;SDS011;13371;52.080;5.624;2023-04-25T13:19:04;1.73;;;0.70;;
25449;SDS011;13371;52.080;5.624;2023-04-25T13:22:33;2.53;;;1.35;;
25449;SDS011;13371;52.080;5.624;2023-04-25T13:25:42;4.25;;;0.73;;
25449;SDS011;13371;52.080;5.624;2023-04-25T13:29:06;1.52;;;0.50;;
25449;SDS011;13371;52.080;5.624;2023-04-25T13:35:33;2.20;;;0.30;;
25449;SDS011;13371;52.080;5.624;2023-04-25T13:41:57;2.75;;;0.68;;
25449;SDS011;13371;52.080;5.624;2023-04-25T13:48:10;2.70;;;0.60;;
25449;SDS011;13371;52.080;5.624;2023-04-25T13:57:28;8.40;;;1.05;;
25449;SDS011;13371;52.080;5.624;2023-04-25T14:00:03;10.55;;;1.05;;
25449;SDS011;13371;52.080;5.624;2023-04-25T14:05:58;6.38;;;0.68;;
25449;SDS011;13371;52.080;5.624;2023-04-25T14:08:48;4.43;;;0.80;;
25449;SDS011;13371;52.080;5.624;2023-04-25T14:19:30;4.65;;;0.70;;
25449;SDS011;13371;52.080;5.624;2023-04-25T14:25:53;2.45;;;0.65;;
25449;SDS011;13371;52.080;5.624;2023-04-25T14:31:42;1.42;;;0.88;;
25449;SDS011;13371;52.080;5.624;2023-04-25T14:34:49;0.95;;;0.60;;
25449;SDS011;13371;52.080;5.624;2023-04-25T14:37:23;2.30;;;0.90;;
25449;SDS011;13371;52.080;5.624;2023-04-25T14:43:20;6.75;;;1.88;;
25449;SDS011;13371;52.080;5.624;2023-04-25T14:46:19;2.25;;;0.60;;
25449;SDS011;13371;52.080;5.624;2023-04-25T14:52:24;3.90;;;1.00;;
25449;SDS011;13371;52.080;5.624;2023-04-25T14:55:07;4.63;;;0.93;;
25449;SDS011;13371;52.080;5.624;2023-04-25T14:57:56;4.65;;;0.75;;
25449;SDS011;13371;52.080;5.624;2023-04-25T15:11:10;1.00;;;0.47;;
25449;SDS011;13371;52.080;5.624;2023-04-25T15:14:24;10.93;;;1.13;;
25449;SDS011;13371;52.080;5.624;2023-04-25T15:17:27;3.08;;;0.60;;
25449;SDS011;13371;52.080;5.624;2023-04-25T15:20:02;5.32;;;1.50;;
25449;SDS011;13371;52.080;5.624;2023-04-25T15:26:29;2.25;;;0.90;;
25449;SDS011;13371;52.080;5.624;2023-04-25T15:28:58;2.83;;;1.38;;
25449;SDS011;13371;52.080;5.624;2023-04-25T15:31:26;1.33;;;0.70;;
25449;SDS011;13371;52.080;5.624;2023-04-25T15:33:58;3.58;;;1.23;;
25449;SDS011;13371;52.080;5.624;2023-04-25T15:36:30;2.75;;;1.10;;
25449;SDS011;13371;52.080;5.624;2023-04-25T15:38:56;3.50;;;1.15;;
25449;SDS011;13371;52.080;5.624;2023-04-25T15:41:22;4.88;;;1.15;;
25449;SDS011;13371;52.080;5.624;2023-04-25T15:43:49;2.40;;;0.82;;
25449;SDS011;13371;52.080;5.624;2023-04-25T15:46:14;2.30;;;0.77;;
25449;SDS011;13371;52.080;5.624;2023-04-25T15:48:40;2.60;;;0.80;;
25449;SDS011;13371;52.080;5.624;2023-04-25T15:51:06;3.40;;;0.68;;
25449;SDS011;13371;52.080;5.624;2023-04-25T15:53:31;4.88;;;0.68;;
25449;SDS011;13371;52.080;5.624;2023-04-25T15:55:57;1.52;;;0.70;;
25449;SDS011;13371;52.080;5.624;2023-04-25T15:58:22;6.18;;;1.10;;
25449;SDS011;13371;52.080;5.624;2023-04-25T16:00:48;4.18;;;1.17;;
25449;SDS011;13371;52.080;5.624;2023-04-25T16:03:15;3.90;;;0.80;;
25449;SDS011;13371;52.080;5.624;2023-04-25T16:05:41;7.80;;;1.77;;
25449;SDS011;13371;52.080;5.624;2023-04-25T16:08:07;3.63;;;0.80;;
25449;SDS011;13371;52.080;5.624;2023-04-25T16:10:33;5.15;;;1.13;;
25449;SDS011;13371;52.080;5.624;2023-04-25T16:12:59;4.88;;;1.33;;
25449;SDS011;13371;52.080;5.624;2023-04-25T16:15:25;3.97;;;1.13;;
25449;SDS011;13371;52.080;5.624;2023-04-25T16:17:51;5.18;;;1.08;;
25449;SDS011;13371;52.080;5.624;2023-04-25T16:20:16;6.78;;;1.63;;
25449;SDS011;13371;52.080;5.624;2023-04-25T16:22:42;2.63;;;0.90;;
25449;SDS011;13371;52.080;5.624;2023-04-25T16:25:08;4.05;;;0.95;;
25449;SDS011;13371;52.080;5.624;2023-04-25T16:27:36;1.85;;;0.75;;
25449;SDS011;13371;52.080;5.624;2023-04-25T16:30:03;7.93;;;1.10;;
25449;SDS011;13371;52.080;5.624;2023-04-25T16:32:32;4.78;;;0.90;;
25449;SDS011;13371;52.080;5.624;2023-04-25T16:34:57;3.10;;;0.93;;
25449;SDS011;13371;52.080;5.624;2023-04-25T16:37:23;9.02;;;1.52;;
25449;SDS011;13371;52.080;5.624;2023-04-25T16:39:49;2.58;;;0.98;;
25449;SDS011;13371;52.080;5.624;2023-04-25T16:42:15;4.82;;;1.17;;
25449;SDS011;13371;52.080;5.624;2023-04-25T16:44:40;6.00;;;1.95;;
25449;SDS011;13371;52.080;5.624;2023-04-25T16:47:06;2.75;;;1.77;;
25449;SDS011;13371;52.080;5.624;2023-04-25T16:49:34;5.82;;;1.40;;
25449;SDS011;13371;52.080;5.624;2023-04-25T16:52:00;3.15;;;1.08;;
25449;SDS011;13371;52.080;5.624;2023-04-25T16:54:26;3.42;;;1.30;;
25449;SDS011;13371;52.080;5.624;2023-04-25T16:56:52;2.30;;;0.88;;
25449;SDS011;13371;52.080;5.624;2023-04-25T16:59:18;1.85;;;0.90;;
25449;SDS011;13371;52.080;5.624;2023-04-25T17:01:44;3.20;;;0.90;;
25449;SDS011;13371;52.080;5.624;2023-04-25T17:04:10;1.35;;;0.75;;
25449;SDS011;13371;52.080;5.624;2023-04-25T17:06:35;4.68;;;2.05;;
25449;SDS011;13371;52.080;5.624;2023-04-25T17:09:02;7.03;;;1.58;;
25449;SDS011;13371;52.080;5.624;2023-04-25T17:11:27;6.18;;;1.48;;